Time;durP1;ratioP1;P1;durP2;ratioP2;P2;SDS_P1;SDS_P2;PMS_P1;PMS_P2;Temp;Humidity;BMP_temperature;BMP_pressure;BME280_temperature;BME280_humidity;BME280_pressure;Samples;Min_cycle;Max_cycle;Signal;HPM_P1;HPM_P2
2022/03/25 00:01:48;;;;;;;81.93;31.80;;;;;;;;;;4830873;29;20482;-84
2022/03/25 00:04:33;;;;;;;125.07;48.17;;;;;;;;;;4831860;29;20046;-84
2022/03/25 00:07:19;;;;;;;113.95;44.05;;;;;;;;;;4831234;29;20486;-84
2022/03/25 00:10:05;;;;;;;104.22;42.10;;;;;;;;;;4831024;29;20062;-85
2022/03/25 00:12:51;;;;;;;73.95;34.40;;;;;;;;;;4831685;29;20058;-85
2022/03/25 00:15:36;;;;;;;87.53;39.05;;;;;;;;;;4825995;29;20054;-84
2022/03/25 00:18:22;;;;;;;66.22;30.02;;;;;;;;;;4832177;29;20478;-84
2022/03/25 00:21:07;;;;;;;61.80;29.80;;;;;;;;;;4825994;29;20042;-84
2022/03/25 00:23:53;;;;;;;67.30;29.60;;;;;;;;;;4831991;29;20471;-84
2022/03/25 00:26:38;;;;;;;71.55;30.88;;;;;;;;;;4826195;29;20051;-84
2022/03/25 00:29:25;;;;;;;56.70;25.95;;;;;;;;;;4824811;29;20406;-84
2022/03/25 00:32:11;;;;;;;61.75;24.27;;;;;;;;;;4832178;29;20054;-83
2022/03/25 00:34:59;;;;;;;45.90;21.88;;;;;;;;;;4818238;29;20058;-83
2022/03/25 00:37:45;;;;;;;41.47;21.38;;;;;;;;;;4833146;29;20050;-82
2022/03/25 00:40:31;;;;;;;45.88;18.40;;;;;;;;;;4826287;29;20058;-82
2022/03/25 00:43:17;;;;;;;32.55;14.90;;;;;;;;;;4831825;29;20058;-83
2022/03/25 00:46:16;;;;;;;29.60;13.60;;;;;;;;;;4824825;29;20054;-83
2022/03/25 00:49:06;;;;;;;29.75;12.65;;;;;;;;;;4824056;29;20046;-82
2022/03/25 00:51:53;;;;;;;29.20;13.55;;;;;;;;;;4833546;29;20043;-85
2022/03/25 00:54:39;;;;;;;31.17;14.77;;;;;;;;;;4821280;29;20059;-83
2022/03/25 00:57:27;;;;;;;32.72;14.27;;;;;;;;;;4822062;29;20397;-84
2022/03/25 01:00:15;;;;;;;30.08;14.13;;;;;;;;;;4839418;29;20057;-83
2022/03/25 01:03:00;;;;;;;28.92;13.15;;;;;;;;;;4856604;29;20477;-83
2022/03/25 01:05:46;;;;;;;34.63;15.52;;;;;;;;;;4850934;29;20053;-83
2022/03/25 01:08:31;;;;;;;39.05;15.10;;;;;;;;;;4851466;29;20046;-83
2022/03/25 01:11:19;;;;;;;36.03;16.05;;;;;;;;;;4850646;29;20054;-83
2022/03/25 01:14:05;;;;;;;29.73;14.55;;;;;;;;;;4850880;29;20049;-82
2022/03/25 01:16:50;;;;;;;27.23;13.65;;;;;;;;;;4843361;29;20050;-84
2022/03/25 01:19:36;;;;;;;31.35;14.13;;;;;;;;;;4849904;29;20050;-83
2022/03/25 01:22:21;;;;;;;39.97;15.98;;;;;;;;;;4841859;29;20050;-83
2022/03/25 01:25:08;;;;;;;32.45;14.57;;;;;;;;;;4844636;29;20058;-83
2022/03/25 01:27:54;;;;;;;27.33;13.55;;;;;;;;;;4847425;29;20053;-83
2022/03/25 01:30:40;;;;;;;29.50;12.35;;;;;;;;;;4854313;29;20054;-83
2022/03/25 01:33:25;;;;;;;23.67;12.20;;;;;;;;;;4847317;29;20058;-83
2022/03/25 01:36:10;;;;;;;22.75;11.57;;;;;;;;;;4847898;29;20494;-83
2022/03/25 01:38:57;;;;;;;32.25;12.95;;;;;;;;;;4853645;29;20049;-83
2022/03/25 01:41:47;;;;;;;19.75;9.93;;;;;;;;;;4832581;29;20046;-83
2022/03/25 01:44:33;;;;;;;21.30;10.07;;;;;;;;;;4863469;29;20049;-84
2022/03/25 01:47:27;;;;;;;20.75;10.35;;;;;;;;;;4851498;29;20049;-84
2022/03/25 01:50:18;;;;;;;25.15;10.75;;;;;;;;;;4845000;29;20049;-83
2022/03/25 01:53:09;;;;;;;21.98;10.55;;;;;;;;;;4845340;29;20054;-84
2022/03/25 01:56:01;;;;;;;19.95;10.50;;;;;;;;;;4845347;29;20054;-84
2022/03/25 01:58:47;;;;;;;26.13;11.75;;;;;;;;;;4836887;29;20433;-84
2022/03/25 02:01:32;;;;;;;28.63;13.07;;;;;;;;;;4820650;29;20046;-85
2022/03/25 02:04:18;;;;;;;30.70;13.98;;;;;;;;;;4824819;29;20046;-85
2022/03/25 02:07:04;;;;;;;31.17;13.98;;;;;;;;;;4824941;29;20055;-84
2022/03/25 02:09:50;;;;;;;27.90;13.80;;;;;;;;;;4817055;29;20050;-84
2022/03/25 02:12:36;;;;;;;29.30;13.77;;;;;;;;;;4829485;29;20050;-83
2022/03/25 02:15:52;;;;;;;23.73;12.35;;;;;;;;;;4824565;29;20042;-83
2022/03/25 02:18:37;;;;;;;;;;;;;;;;;;4818292;29;20058;-83
2022/03/25 02:21:23;;;;;;;20.33;10.60;;;;;;;;;;4816940;29;20284;-83
2022/03/25 02:24:09;;;;;;;21.02;10.50;;;;;;;;;;4819196;29;20490;-84
2022/03/25 02:26:57;;;;;;;28.40;10.55;;;;;;;;;;4816761;29;20054;-83
2022/03/25 02:29:46;;;;;;;22.35;8.65;;;;;;;;;;4829354;29;20046;-83
2022/03/25 02:32:32;;;;;;;16.55;8.70;;;;;;;;;;4816910;29;20054;-84
2022/03/25 02:35:17;;;;;;;15.15;8.70;;;;;;;;;;4817106;29;20054;-83
2022/03/25 02:38:05;;;;;;;20.58;8.63;;;;;;;;;;4817996;29;20414;-83
2022/03/25 02:40:51;;;;;;;18.83;8.90;;;;;;;;;;4830627;29;20054;-83
2022/03/25 02:43:36;;;;;;;19.45;8.85;;;;;;;;;;4818153;29;20050;-83
2022/03/25 02:46:21;;;;;;;22.67;9.60;;;;;;;;;;4830642;29;20047;-83
2022/03/25 02:49:06;;;;;;;28.13;9.93;;;;;;;;;;4825205;29;20043;-84
2022/03/25 02:51:52;;;;;;;24.38;10.82;;;;;;;;;;4825844;29;20058;-83
2022/03/25 02:54:38;;;;;;;22.13;11.38;;;;;;;;;;4825467;29;20050;-83
2022/03/25 02:57:23;;;;;;;21.83;12.07;;;;;;;;;;4830599;29;20050;-82
2022/03/25 03:00:09;;;;;;;30.15;12.23;;;;;;;;;;4833886;29;20062;-83
2022/03/25 03:02:54;;;;;;;28.27;12.23;;;;;;;;;;4843108;29;20042;-83
2022/03/25 03:05:40;;;;;;;31.42;12.13;;;;;;;;;;4849703;29;20050;-83
2022/03/25 03:08:30;;;;;;;25.77;12.82;;;;;;;;;;4851780;29;20050;-83
2022/03/25 03:11:16;;;;;;;33.45;11.80;;;;;;;;;;4841424;29;20045;-84
2022/03/25 03:14:02;;;;;;;24.48;11.40;;;;;;;;;;4846465;29;20046;-83
2022/03/25 03:16:47;;;;;;;24.33;11.65;;;;;;;;;;4845789;29;20054;-83
2022/03/25 03:19:33;;;;;;;23.58;10.63;;;;;;;;;;4846437;29;20049;-82
2022/03/25 03:22:18;;;;;;;21.55;10.45;;;;;;;;;;4838892;29;20042;-82
2022/03/25 03:25:05;;;;;;;23.63;9.32;;;;;;;;;;4844997;29;20042;-83
2022/03/25 03:27:50;;;;;;;20.95;10.13;;;;;;;;;;4845258;29;20042;-83
2022/03/25 03:30:36;;;;;;;27.45;10.52;;;;;;;;;;4851698;29;20061;-83
2022/03/25 03:33:23;;;;;;;19.33;9.10;;;;;;;;;;4838424;29;20481;-83
2022/03/25 03:36:08;;;;;;;32.90;10.07;;;;;;;;;;4845629;29;20050;-83
2022/03/25 03:38:54;;;;;;;19.70;10.10;;;;;;;;;;4844850;29;20061;-83
2022/03/25 03:41:39;;;;;;;30.05;11.55;;;;;;;;;;4845017;29;20054;-84
2022/03/25 03:44:25;;;;;;;26.77;11.23;;;;;;;;;;4839074;29;20054;-84
2022/03/25 03:47:11;;;;;;;31.40;13.18;;;;;;;;;;4844700;29;20071;-83
2022/03/25 03:49:56;;;;;;;44.80;15.15;;;;;;;;;;4851495;29;20057;-83
2022/03/25 03:52:42;;;;;;;46.80;16.08;;;;;;;;;;4844576;29;20041;-83
2022/03/25 03:55:27;;;;;;;53.80;17.70;;;;;;;;;;4855462;29;20061;-84
2022/03/25 03:58:32;;;;;;;58.30;18.10;;;;;;;;;;4845186;29;20050;-83
2022/03/25 04:01:17;;;;;;;55.22;17.70;;;;;;;;;;4844902;29;20409;-83
2022/03/25 04:04:03;;;;;;;41.45;16.42;;;;;;;;;;4845156;29;20046;-83
2022/03/25 04:06:49;;;;;;;33.17;13.65;;;;;;;;;;4844682;29;20042;-82
2022/03/25 04:09:37;;;;;;;27.50;11.55;;;;;;;;;;4845242;29;20058;-83
2022/03/25 04:12:23;;;;;;;24.02;11.15;;;;;;;;;;4845038;29;20057;-84
2022/03/25 04:15:10;;;;;;;25.67;10.52;;;;;;;;;;4850575;29;20053;-84
2022/03/25 04:17:57;;;;;;;26.80;11.18;;;;;;;;;;4851013;29;20394;-84
2022/03/25 04:20:42;;;;;;;27.98;12.18;;;;;;;;;;4844054;29;20046;-83
2022/03/25 04:23:28;;;;;;;28.48;13.05;;;;;;;;;;4818023;29;20503;-81
2022/03/25 04:26:14;;;;;;;30.13;13.60;;;;;;;;;;4812827;29;20391;-83
2022/03/25 04:28:59;;;;;;;30.52;15.55;;;;;;;;;;4818058;29;20054;-83
2022/03/25 04:31:45;;;;;;;35.40;15.05;;;;;;;;;;4831885;29;20410;-84
2022/03/25 04:34:30;;;;;;;27.42;14.30;;;;;;;;;;4820480;29;20050;-83
2022/03/25 04:37:16;;;;;;;37.67;13.63;;;;;;;;;;4815079;29;20050;-83
2022/03/25 04:40:03;;;;;;;27.58;13.82;;;;;;;;;;4812318;29;20486;-83
2022/03/25 04:42:51;;;;;;;28.13;13.75;;;;;;;;;;4818788;29;20051;-83
2022/03/25 04:45:37;;;;;;;37.33;14.88;;;;;;;;;;4826693;29;20042;-84
2022/03/25 04:48:22;;;;;;;52.47;17.45;;;;;;;;;;4820359;29;20038;-82
2022/03/25 04:51:08;;;;;;;46.03;16.92;;;;;;;;;;4808892;29;20067;-84
2022/03/25 04:53:53;;;;;;;42.45;15.10;;;;;;;;;;4823622;29;20050;-84
2022/03/25 04:56:39;;;;;;;39.83;15.00;;;;;;;;;;4825164;29;20047;-84
2022/03/25 04:59:25;;;;;;;96.68;36.28;;;;;;;;;;4825668;29;20055;-83
2022/03/25 05:02:10;;;;;;;75.10;26.45;;;;;;;;;;4825467;29;20050;-84
2022/03/25 05:04:56;;;;;;;34.08;14.90;;;;;;;;;;4825664;29;20042;-84
2022/03/25 05:07:43;;;;;;;29.23;13.00;;;;;;;;;;4824985;29;20054;-84
2022/03/25 05:10:29;;;;;;;28.40;11.68;;;;;;;;;;4831184;29;20520;-85
2022/03/25 05:13:15;;;;;;;20.90;10.25;;;;;;;;;;4825738;29;20478;-84
2022/03/25 05:16:00;;;;;;;24.15;10.90;;;;;;;;;;4825741;29;20482;-83
2022/03/25 05:18:46;;;;;;;29.58;14.73;;;;;;;;;;4817385;29;20054;-83
2022/03/25 05:21:31;;;;;;;46.15;18.50;;;;;;;;;;4811340;29;20491;-85
2022/03/25 05:24:17;;;;;;;38.42;18.23;;;;;;;;;;4819621;29;20059;-84
2022/03/25 05:27:04;;;;;;;37.05;17.38;;;;;;;;;;4825298;29;20042;-84
2022/03/25 05:29:49;;;;;;;41.53;17.35;;;;;;;;;;4830619;29;20042;-84
2022/03/25 05:32:35;;;;;;;39.72;17.38;;;;;;;;;;4829600;29;20054;-81
2022/03/25 05:35:21;;;;;;;31.27;16.30;;;;;;;;;;4821446;29;20051;-83
2022/03/25 05:38:08;;;;;;;35.10;17.58;;;;;;;;;;4806809;29;20043;-83
2022/03/25 05:40:53;;;;;;;31.30;15.63;;;;;;;;;;4816240;29;20414;-83
2022/03/25 05:43:39;;;;;;;31.83;15.50;;;;;;;;;;4823211;29;20046;-83
2022/03/25 05:46:26;;;;;;;31.10;15.02;;;;;;;;;;4825847;29;20051;-83
2022/03/25 05:49:11;;;;;;;31.70;15.02;;;;;;;;;;4820996;29;20054;-81
2022/03/25 05:52:00;;;;;;;25.83;13.25;;;;;;;;;;4839300;29;20077;-82
2022/03/25 05:54:49;;;;;;;27.95;13.65;;;;;;;;;;4797762;29;20054;-82
2022/03/25 05:57:35;;;;;;;30.65;15.27;;;;;;;;;;4821099;29;20062;-82
2022/03/25 06:00:20;;;;;;;40.38;19.73;;;;;;;;;;4830426;29;20059;-82
2022/03/25 06:03:06;;;;;;;40.22;20.65;;;;;;;;;;4817659;29;20050;-81
2022/03/25 06:05:51;;;;;;;31.42;16.92;;;;;;;;;;4824755;29;20050;-80
2022/03/25 06:08:37;;;;;;;30.67;16.85;;;;;;;;;;4830688;29;20054;-80
2022/03/25 06:11:23;;;;;;;29.80;15.35;;;;;;;;;;4821654;29;20054;-83
2022/03/25 06:14:08;;;;;;;33.53;18.50;;;;;;;;;;4824434;29;20054;-83
2022/03/25 06:16:54;;;;;;;32.08;16.92;;;;;;;;;;4830298;29;20051;-82
2022/03/25 06:19:39;;;;;;;30.65;17.70;;;;;;;;;;4824421;29;20054;-83
2022/03/25 06:22:25;;;;;;;40.70;16.95;;;;;;;;;;4824185;29;20042;-83
2022/03/25 06:25:12;;;;;;;29.67;15.40;;;;;;;;;;4824913;29;20394;-83
2022/03/25 06:27:59;;;;;;;27.92;14.73;;;;;;;;;;4824344;29;20043;-83
2022/03/25 06:30:45;;;;;;;33.72;15.27;;;;;;;;;;4824649;29;20054;-83
2022/03/25 06:33:30;;;;;;;28.63;12.65;;;;;;;;;;4824053;29;20043;-83
2022/03/25 06:36:16;;;;;;;46.58;23.25;;;;;;;;;;4817184;29;20042;-83
2022/03/25 06:39:02;;;;;;;24.90;12.48;;;;;;;;;;4830405;29;20050;-83
2022/03/25 06:41:47;;;;;;;20.58;10.75;;;;;;;;;;4828864;29;20046;-83
2022/03/25 06:44:32;;;;;;;24.65;11.95;;;;;;;;;;4821701;29;20058;-83
2022/03/25 06:47:17;;;;;;;22.08;10.48;;;;;;;;;;4833894;29;20050;-83
2022/03/25 06:50:05;;;;;;;21.25;9.77;;;;;;;;;;4832939;29;20490;-84
2022/03/25 06:52:51;;;;;;;25.42;10.30;;;;;;;;;;4828575;29;20053;-82
2022/03/25 06:55:39;;;;;;;14.23;8.77;;;;;;;;;;4828776;29;20055;-83
2022/03/25 06:58:25;;;;;;;28.10;10.73;;;;;;;;;;4828274;29;20042;-82
2022/03/25 07:01:12;;;;;;;35.08;11.45;;;;;;;;;;4828774;29;20398;-82
2022/03/25 07:03:57;;;;;;;15.98;8.02;;;;;;;;;;4828327;29;20047;-82
2022/03/25 07:06:48;;;;;;;13.27;6.75;;;;;;;;;;4828688;29;20046;-83
2022/03/25 07:09:35;;;;;;;11.23;6.32;;;;;;;;;;4828956;29;20050;-81
2022/03/25 07:12:20;;;;;;;24.42;9.60;;;;;;;;;;4821228;29;20050;-81
2022/03/25 07:15:07;;;;;;;32.75;12.02;;;;;;;;;;4828547;29;20050;-81
2022/03/25 07:17:52;;;;;;;19.95;7.47;;;;;;;;;;4834105;29;20486;-85
2022/03/25 07:20:38;;;;;;;16.60;8.05;;;;;;;;;;4828108;29;20050;-84
2022/03/25 07:23:23;;;;;;;19.48;8.55;;;;;;;;;;4827654;29;20054;-84
2022/03/25 07:26:09;;;;;;;14.32;7.53;;;;;;;;;;4827783;29;20054;-85
2022/03/25 07:28:54;;;;;;;5.32;3.05;;;;;;;;;;4833728;29;20050;-84
2022/03/25 07:31:40;;;;;;;10.40;5.30;;;;;;;;;;4827142;29;20058;-82
2022/03/25 07:34:25;;;;;;;30.23;6.80;;;;;;;;;;4821423;29;20042;-82
2022/03/25 07:37:11;;;;;;;11.90;6.78;;;;;;;;;;4832740;29;20474;-83
2022/03/25 07:39:56;;;;;;;14.55;6.68;;;;;;;;;;4828074;29;20051;-84
2022/03/25 07:42:44;;;;;;;14.40;4.15;;;;;;;;;;4826411;29;20058;-82
2022/03/25 07:45:30;;;;;;;11.68;6.40;;;;;;;;;;4819060;29;20046;-82
2022/03/25 07:48:16;;;;;;;18.88;7.88;;;;;;;;;;4832645;29;20059;-83
2022/03/25 07:51:01;;;;;;;29.17;11.75;;;;;;;;;;4831592;29;20050;-82
2022/03/25 07:53:47;;;;;;;286.83;191.85;;;;;;;;;;4826653;29;20054;-83
2022/03/25 07:56:32;;;;;;;490.40;316.25;;;;;;;;;;4825871;29;20046;-81
2022/03/25 07:59:18;;;;;;;383.55;232.00;;;;;;;;;;4819422;29;20058;-82
2022/03/25 08:02:03;;;;;;;378.08;225.95;;;;;;;;;;4826127;29;20054;-83
2022/03/25 08:04:49;;;;;;;7.68;4.80;;;;;;;;;;4826590;29;20058;-81
2022/03/25 08:07:48;;;;;;;152.90;99.88;;;;;;;;;;4832452;29;20402;-82
2022/03/25 08:10:35;;;;;;;18.58;5.57;;;;;;;;;;4826300;29;20054;-82
2022/03/25 08:13:21;;;;;;;26.67;8.65;;;;;;;;;;4819399;29;20414;-82
2022/03/25 08:16:08;;;;;;;18.85;7.88;;;;;;;;;;4831192;29;20054;-86
2022/03/25 08:18:53;;;;;;;11.75;5.13;;;;;;;;;;4825816;29;20050;-83
2022/03/25 08:21:39;;;;;;;7.68;3.90;;;;;;;;;;4826826;29;20039;-81
2022/03/25 08:30:32;;;;;;;7.32;3.72;;;;;;;;;;4814776;29;20429;-83
2022/03/25 08:33:18;;;;;;;8.88;3.97;;;;;;;;;;4831833;29;20054;-81
2022/03/25 08:36:04;;;;;;;10.32;5.70;;;;;;;;;;4825744;29;20485;-81
2022/03/25 08:38:49;;;;;;;14.80;4.57;;;;;;;;;;4825632;29;20449;-80
2022/03/25 08:41:34;;;;;;;6.35;3.92;;;;;;;;;;4825055;29;20046;-80
2022/03/25 08:44:20;;;;;;;21.60;6.85;;;;;;;;;;4831242;29;20058;-79
2022/03/25 08:47:05;;;;;;;17.58;4.75;;;;;;;;;;4824874;29;20046;-80
2022/03/25 08:49:51;;;;;;;8.07;4.35;;;;;;;;;;4831312;29;20458;-79
2022/03/25 08:52:37;;;;;;;9.32;3.63;;;;;;;;;;4825525;29;20054;-79
2022/03/25 08:55:22;;;;;;;8.90;3.88;;;;;;;;;;4825158;29;20054;-82
2022/03/25 08:58:08;;;;;;;31.77;14.20;;;;;;;;;;4825351;29;20046;-81
2022/03/25 09:00:53;;;;;;;15.52;5.82;;;;;;;;;;4824697;29;20050;-81
2022/03/25 09:03:39;;;;;;;16.95;6.82;;;;;;;;;;4831259;29;20058;-81
2022/03/25 09:06:24;;;;;;;14.23;5.30;;;;;;;;;;4825165;29;20050;-80
2022/03/25 09:09:10;;;;;;;18.45;5.32;;;;;;;;;;4833043;29;20062;-79
2022/03/25 09:11:56;;;;;;;8.98;4.05;;;;;;;;;;4825605;29;20062;-80
2022/03/25 09:14:41;;;;;;;13.85;4.90;;;;;;;;;;4830825;29;20054;-80
2022/03/25 09:17:27;;;;;;;18.17;5.15;;;;;;;;;;4831748;29;20507;-83
2022/03/25 09:20:13;;;;;;;16.27;4.78;;;;;;;;;;4825399;29;20047;-81
2022/03/25 09:23:00;;;;;;;12.90;6.20;;;;;;;;;;4824661;29;20042;-80
2022/03/25 09:25:46;;;;;;;6.95;3.75;;;;;;;;;;4825489;29;20398;-82
2022/03/25 09:28:31;;;;;;;8.27;4.47;;;;;;;;;;4824489;29;20050;-80
2022/03/25 09:31:16;;;;;;;8.05;4.18;;;;;;;;;;4823971;29;20058;-80
2022/03/25 09:37:05;;;;;;;20.63;4.82;;;;;;;;;;4824569;29;20055;-81
2022/03/25 09:39:51;;;;;;;15.20;5.65;;;;;;;;;;4825447;29;20058;-80
2022/03/25 09:42:36;;;;;;;15.93;6.10;;;;;;;;;;4816629;29;20417;-80
2022/03/25 09:45:24;;;;;;;15.77;4.13;;;;;;;;;;4830798;29;20050;-79
2022/03/25 09:48:09;;;;;;;6.68;3.17;;;;;;;;;;4830936;29;20046;-81
2022/03/25 09:50:55;;;;;;;22.65;4.68;;;;;;;;;;4832947;29;20482;-78
2022/03/25 09:53:41;;;;;;;6.30;3.10;;;;;;;;;;4825843;29;20050;-81
2022/03/25 09:56:28;;;;;;;8.65;3.08;;;;;;;;;;4824406;29;20046;-83
2022/03/25 09:59:20;;;;;;;13.60;4.47;;;;;;;;;;4824529;29;20506;-82
2022/03/25 10:02:06;;;;;;;13.90;4.50;;;;;;;;;;4824856;29;20038;-82
2022/03/25 10:04:53;;;;;;;10.55;5.50;;;;;;;;;;4830408;29;20478;-80
2022/03/25 10:07:44;;;;;;;9.40;3.40;;;;;;;;;;4825220;29;20399;-79
2022/03/25 10:10:30;;;;;;;23.25;4.40;;;;;;;;;;4824782;29;20478;-81
2022/03/25 10:13:19;;;;;;;7.57;3.17;;;;;;;;;;4830749;29;20058;-81
2022/03/25 10:16:25;;;;;;;7.82;3.42;;;;;;;;;;4824831;29;20047;-78
2022/03/25 10:19:21;;;;;;;7.97;3.80;;;;;;;;;;4832351;29;20042;-79
2022/03/25 10:22:06;;;;;;;6.90;3.33;;;;;;;;;;4834312;29;20050;-79
2022/03/25 10:24:53;;;;;;;7.80;3.90;;;;;;;;;;4827891;29;20058;-79
2022/03/25 10:27:40;;;;;;;7.68;4.07;;;;;;;;;;4834498;29;20054;-80
2022/03/25 10:30:40;;;;;;;7.97;3.58;;;;;;;;;;4828054;29;20505;-82
2022/03/25 10:33:34;;;;;;;10.88;3.75;;;;;;;;;;4828255;29;20058;-82
2022/03/25 10:36:25;;;;;;;6.28;3.58;;;;;;;;;;4831108;29;20058;-80
2022/03/25 10:39:16;;;;;;;11.57;5.28;;;;;;;;;;4834310;29;20054;-81
2022/03/25 10:42:09;;;;;;;17.25;4.82;;;;;;;;;;4834053;29;20046;-81
2022/03/25 10:44:54;;;;;;;14.40;4.13;;;;;;;;;;4827870;29;20055;-83
2022/03/25 10:47:41;;;;;;;11.82;4.00;;;;;;;;;;4827247;29;20054;-84
2022/03/25 10:50:28;;;;;;;16.20;4.50;;;;;;;;;;4834199;29;20050;-83
2022/03/25 10:53:13;;;;;;;10.88;3.55;;;;;;;;;;4827520;29;20062;-80
2022/03/25 10:56:03;;;;;;;14.88;5.13;;;;;;;;;;4828534;29;20047;-80
2022/03/25 10:58:55;;;;;;;22.33;4.38;;;;;;;;;;4827555;29;20054;-79
2022/03/25 11:01:40;;;;;;;7.93;4.40;;;;;;;;;;4827224;29;20054;-81
2022/03/25 11:04:27;;;;;;;15.48;5.13;;;;;;;;;;4827350;29;20050;-78
2022/03/25 11:07:13;;;;;;;13.45;5.30;;;;;;;;;;4833756;29;20411;-80
2022/03/25 11:10:00;;;;;;;11.52;4.97;;;;;;;;;;4827294;29;20062;-82
2022/03/25 11:12:47;;;;;;;10.20;4.88;;;;;;;;;;4827046;29;20495;-80
2022/03/25 11:15:33;;;;;;;8.85;3.78;;;;;;;;;;4826802;29;20046;-80
2022/03/25 11:18:20;;;;;;;10.23;4.05;;;;;;;;;;4827282;29;20051;-80
2022/03/25 11:21:08;;;;;;;8.75;4.38;;;;;;;;;;4827119;29;20046;-80
2022/03/25 11:23:56;;;;;;;22.05;5.95;;;;;;;;;;4830783;29;20051;-80
2022/03/25 11:26:44;;;;;;;14.32;5.25;;;;;;;;;;4839503;29;20050;-80
2022/03/25 11:29:32;;;;;;;8.93;4.30;;;;;;;;;;4831512;29;20046;-80
2022/03/25 11:32:17;;;;;;;17.27;6.47;;;;;;;;;;4838828;29;20062;-82
2022/03/25 11:35:03;;;;;;;9.60;4.43;;;;;;;;;;4838705;29;20058;-80
2022/03/25 11:38:12;;;;;;;8.55;4.43;;;;;;;;;;4831681;29;20407;-81
2022/03/25 11:41:25;;;;;;;7.93;4.00;;;;;;;;;;4832726;29;20050;-79
2022/03/25 11:44:14;;;;;;;20.48;4.85;;;;;;;;;;4832506;29;20050;-80
2022/03/25 11:47:00;;;;;;;10.77;6.05;;;;;;;;;;4827774;29;20466;-82
2022/03/25 11:49:45;;;;;;;11.15;5.25;;;;;;;;;;4826466;29;20046;-80
2022/03/25 11:52:33;;;;;;;13.05;6.53;;;;;;;;;;4826483;29;20077;-79
2022/03/25 11:55:18;;;;;;;20.48;5.13;;;;;;;;;;4833013;29;20055;-79
2022/03/25 11:58:14;;;;;;;11.63;5.22;;;;;;;;;;4832755;29;20054;-80
2022/03/25 12:01:05;;;;;;;8.25;4.68;;;;;;;;;;4826332;29;20054;-79
2022/03/25 12:03:58;;;;;;;10.23;4.65;;;;;;;;;;4834768;29;20042;-81
2022/03/25 12:07:08;;;;;;;13.98;6.40;;;;;;;;;;4833904;29;20054;-82
2022/03/25 12:09:54;;;;;;;10.60;5.82;;;;;;;;;;4825122;29;20494;-80
2022/03/25 12:12:57;;;;;;;37.90;14.57;;;;;;;;;;4825916;29;20054;-81
2022/03/25 12:15:45;;;;;;;15.25;7.43;;;;;;;;;;4832752;29;20054;-81
2022/03/25 12:18:44;;;;;;;16.58;6.70;;;;;;;;;;4832028;29;20058;-82
2022/03/25 12:21:38;;;;;;;17.23;6.93;;;;;;;;;;4812399;29;20054;-83
2022/03/25 12:24:25;;;;;;;13.23;6.57;;;;;;;;;;4826192;29;20482;-81
2022/03/25 12:27:14;;;;;;;19.85;6.35;;;;;;;;;;4826155;29;20410;-81
2022/03/25 12:30:02;;;;;;;19.05;7.38;;;;;;;;;;4832524;29;20054;-82
2022/03/25 12:32:50;;;;;;;12.25;5.78;;;;;;;;;;4812967;29;20047;-81
2022/03/25 12:35:37;;;;;;;10.48;5.15;;;;;;;;;;4827168;29;20149;-81
2022/03/25 12:38:24;;;;;;;14.32;6.97;;;;;;;;;;4825740;29;20051;-81
2022/03/25 12:41:09;;;;;;;17.17;6.28;;;;;;;;;;4831854;29;20483;-81
2022/03/25 12:44:01;;;;;;;18.75;6.32;;;;;;;;;;4825745;29;20038;-82
2022/03/25 12:46:46;;;;;;;13.65;6.18;;;;;;;;;;4827577;29;20072;-80
2022/03/25 12:49:33;;;;;;;19.38;6.57;;;;;;;;;;4827680;29;20054;-83
2022/03/25 12:52:24;;;;;;;16.35;7.95;;;;;;;;;;4825874;29;20050;-80
2022/03/25 12:55:12;;;;;;;17.92;6.82;;;;;;;;;;4825689;29;20050;-82
2022/03/25 12:58:09;;;;;;;15.82;8.07;;;;;;;;;;4825899;29;20046;-81
2022/03/25 13:00:57;;;;;;;11.75;6.57;;;;;;;;;;4840772;29;20050;-80
2022/03/25 13:03:47;;;;;;;12.93;6.70;;;;;;;;;;4849405;29;20461;-79
2022/03/25 13:06:33;;;;;;;10.98;5.22;;;;;;;;;;4843514;29;20050;-81
2022/03/25 13:09:18;;;;;;;15.20;7.88;;;;;;;;;;4843705;29;20054;-78
2022/03/25 13:12:04;;;;;;;19.73;7.47;;;;;;;;;;4849824;29;20053;-81
2022/03/25 13:14:53;;;;;;;15.38;7.15;;;;;;;;;;4843570;29;20045;-83
2022/03/25 13:17:42;;;;;;;12.05;6.30;;;;;;;;;;4849612;29;20049;-84
2022/03/25 13:20:30;;;;;;;18.70;6.90;;;;;;;;;;4837545;29;20046;-82
2022/03/25 13:23:17;;;;;;;13.45;7.43;;;;;;;;;;4849358;29;20046;-82
2022/03/25 13:26:05;;;;;;;9.85;5.53;;;;;;;;;;4849643;29;20054;-82
2022/03/25 13:28:54;;;;;;;14.38;7.25;;;;;;;;;;4843825;29;20053;-82
2022/03/25 13:31:39;;;;;;;7.63;4.75;;;;;;;;;;4843749;29;20050;-82
2022/03/25 13:34:24;;;;;;;14.27;6.15;;;;;;;;;;4849892;29;20054;-81
2022/03/25 13:37:22;;;;;;;11.90;5.10;;;;;;;;;;4850040;29;20061;-82
2022/03/25 13:40:33;;;;;;;14.13;7.60;;;;;;;;;;4843534;29;20058;-81
2022/03/25 13:43:21;;;;;;;9.70;4.45;;;;;;;;;;4825980;29;20043;-82
2022/03/25 13:46:19;;;;;;;10.90;6.20;;;;;;;;;;4827550;29;20050;-82
2022/03/25 13:49:17;;;;;;;11.93;6.82;;;;;;;;;;4824540;29;20047;-84
2022/03/25 13:52:07;;;;;;;11.60;5.47;;;;;;;;;;4829100;29;20058;-81
2022/03/25 13:55:12;;;;;;;19.23;8.30;;;;;;;;;;4819030;29;20055;-83
2022/03/25 13:57:59;;;;;;;19.25;9.95;;;;;;;;;;4816867;29;20051;-82
2022/03/25 14:00:52;;;;;;;13.38;7.00;;;;;;;;;;4823397;29;20058;-82
2022/03/25 14:03:39;;;;;;;34.30;7.47;;;;;;;;;;4830457;29;20058;-82
2022/03/25 14:06:32;;;;;;;15.18;7.30;;;;;;;;;;4824073;29;20050;-82
2022/03/25 14:09:29;;;;;;;15.60;7.05;;;;;;;;;;4815203;29;20058;-85
2022/03/25 14:12:19;;;;;;;13.43;6.78;;;;;;;;;;4820735;29;20066;-84
2022/03/25 14:15:06;;;;;;;21.15;8.98;;;;;;;;;;4808267;29;20046;-82
2022/03/25 14:17:52;;;;;;;15.27;6.55;;;;;;;;;;4811248;29;20055;-83
2022/03/25 14:20:37;;;;;;;11.85;6.40;;;;;;;;;;4807978;29;20490;-83
2022/03/25 14:23:23;;;;;;;15.80;8.85;;;;;;;;;;4814144;29;20134;-83
2022/03/25 14:26:08;;;;;;;16.55;9.02;;;;;;;;;;4811647;29;20410;-82
2022/03/25 14:28:57;;;;;;;22.10;11.30;;;;;;;;;;4816459;29;20054;-83
2022/03/25 14:35:04;;;;;;;13.50;8.90;;;;;;;;;;4812502;29;20054;-83
2022/03/25 14:37:52;;;;;;;13.10;9.55;;;;;;;;;;4811815;29;20047;-86
2022/03/25 14:40:38;;;;;;;23.13;14.68;;;;;;;;;;4812028;29;20055;-84
2022/03/25 14:43:23;;;;;;;14.30;8.52;;;;;;;;;;4802319;29;20494;-84
2022/03/25 14:46:08;;;;;;;17.15;6.68;;;;;;;;;;4810218;29;20054;-84
2022/03/25 14:48:54;;;;;;;30.75;12.07;;;;;;;;;;4816551;29;20413;-81
2022/03/25 14:51:40;;;;;;;12.05;6.40;;;;;;;;;;4825430;29;20486;-83
2022/03/25 14:54:26;;;;;;;10.82;6.28;;;;;;;;;;4824075;29;20039;-82
2022/03/25 14:57:11;;;;;;;33.40;16.08;;;;;;;;;;4819114;29;20434;-82
2022/03/25 14:59:56;;;;;;;14.45;8.57;;;;;;;;;;4823998;29;20050;-82
2022/03/25 15:02:42;;;;;;;14.48;6.03;;;;;;;;;;4839005;29;20046;-84
2022/03/25 15:05:29;;;;;;;22.50;9.82;;;;;;;;;;4835008;29;20050;-83
2022/03/25 15:08:15;;;;;;;15.80;7.40;;;;;;;;;;4816018;29;20054;-85
2022/03/25 15:11:01;;;;;;;8.77;4.50;;;;;;;;;;4823284;29;20046;-84
2022/03/25 15:13:47;;;;;;;15.82;7.22;;;;;;;;;;4830247;29;20054;-84
2022/03/25 15:16:33;;;;;;;13.05;6.10;;;;;;;;;;4827761;29;20041;-83
2022/03/25 15:19:18;;;;;;;17.25;7.82;;;;;;;;;;4830861;29;20042;-84
2022/03/25 15:22:05;;;;;;;12.63;5.68;;;;;;;;;;4818471;29;20054;-84
2022/03/25 15:24:51;;;;;;;9.57;5.30;;;;;;;;;;4831467;29;20054;-82
2022/03/25 15:27:36;;;;;;;17.58;6.50;;;;;;;;;;4831213;29;20046;-83
2022/03/25 15:36:29;;;;;;;9.40;6.00;;;;;;;;;;4826815;29;20406;-84
2022/03/25 15:39:15;;;;;;;15.50;7.05;;;;;;;;;;4822336;29;20042;-82
2022/03/25 15:42:00;;;;;;;15.48;7.28;;;;;;;;;;4829712;29;20047;-86
2022/03/25 15:44:49;;;;;;;14.02;5.45;;;;;;;;;;4837863;29;20034;-84
2022/03/25 15:47:35;;;;;;;15.25;8.48;;;;;;;;;;4821243;29;20058;-84
2022/03/25 15:50:20;;;;;;;12.60;5.32;;;;;;;;;;4824013;29;20047;-83
2022/03/25 15:53:06;;;;;;;9.65;6.15;;;;;;;;;;4827785;29;20054;-82
2022/03/25 15:55:54;;;;;;;11.93;6.60;;;;;;;;;;4827790;29;20054;-84
2022/03/25 15:58:38;;;;;;;17.67;9.40;;;;;;;;;;4825268;29;20058;-84
2022/03/25 16:01:23;;;;;;;12.73;6.95;;;;;;;;;;4830050;29;20077;-86
2022/03/25 16:04:09;;;;;;;11.35;4.78;;;;;;;;;;4830369;29;20046;-84
2022/03/25 16:06:54;;;;;;;10.13;6.32;;;;;;;;;;4824395;29;20054;-84
2022/03/25 16:09:41;;;;;;;10.00;6.28;;;;;;;;;;4828661;29;20050;-83
2022/03/25 16:12:29;;;;;;;14.13;7.57;;;;;;;;;;4829988;29;20046;-83
2022/03/25 16:15:17;;;;;;;23.77;9.63;;;;;;;;;;4830324;29;20049;-85
2022/03/25 16:18:03;;;;;;;20.08;10.02;;;;;;;;;;4831323;29;20057;-84
2022/03/25 16:20:55;;;;;;;18.35;11.43;;;;;;;;;;4831285;29;20409;-83
2022/03/25 16:23:41;;;;;;;25.63;10.30;;;;;;;;;;4825560;29;20054;-85
2022/03/25 16:26:27;;;;;;;19.40;9.65;;;;;;;;;;4821132;29;20410;-86
2022/03/25 16:29:14;;;;;;;20.63;10.23;;;;;;;;;;4830231;29;20058;-84
2022/03/25 16:32:01;;;;;;;14.07;5.88;;;;;;;;;;4826802;29;20050;-85
2022/03/25 16:34:46;;;;;;;26.80;14.98;;;;;;;;;;4829599;29;20054;-85
2022/03/25 16:37:33;;;;;;;42.95;21.00;;;;;;;;;;4832208;29;20043;-84
2022/03/25 16:40:20;;;;;;;53.75;24.60;;;;;;;;;;4826411;29;20050;-82
2022/03/25 16:43:06;;;;;;;46.28;23.65;;;;;;;;;;4824223;29;20952;-85